Time;durP1;ratioP1;P1;durP2;ratioP2;P2;SDS_P1;SDS_P2;PMS_P1;PMS_P2;Temp;Humidity;BMP_temperature;BMP_pressure;BME280_temperature;BME280_humidity;BME280_pressure;Samples;Min_cycle;Max_cycle;Signal;HPM_P1;HPM_P2
2022/06/01 00:01:32;;;;;;;;;3.00;3.00;;;;;18.28;39.28;100757.47;5073982;28;45501;-62
2022/06/01 00:03:57;;;;;;;;;2.00;2.00;;;;;18.25;39.25;100764.81;5073675;28;45502;-63
2022/06/01 00:06:23;;;;;;;;;1.67;1.67;;;;;18.25;39.40;100768.31;5073618;28;46393;-63
2022/06/01 00:08:48;;;;;;;;;5.33;3.33;;;;;18.20;39.32;100765.09;5072227;28;45482;-62
2022/06/01 00:11:13;;;;;;;;;4.33;2.67;;;;;18.23;39.25;100764.03;5073395;27;45461;-63
2022/06/01 00:13:40;;;;;;;;;2.00;2.00;;;;;18.19;39.58;100767.84;5073400;28;45691;-62
2022/06/01 00:16:07;;;;;;;;;2.33;2.33;;;;;18.18;39.53;100764.34;5073500;28;45516;-62
2022/06/01 00:18:33;;;;;;;;;1.33;1.33;;;;;18.21;39.31;100772.13;5073368;28;45322;-63
2022/06/01 00:20:58;;;;;;;;;3.33;3.33;;;;;18.18;39.32;100769.66;5073462;28;45514;-62
2022/06/01 00:23:24;;;;;;;;;3.67;2.67;;;;;18.19;39.24;100770.50;5073342;28;45546;-62
2022/06/01 00:25:50;;;;;;;;;3.00;3.00;;;;;18.22;39.61;100768.53;5073122;28;45500;-63
2022/06/01 00:28:15;;;;;;;;;3.67;3.67;;;;;18.23;39.43;100785.34;5073198;28;45442;-62
2022/06/01 00:30:41;;;;;;;;;2.00;2.00;;;;;18.23;39.16;100775.53;5073518;28;45448;-63
2022/06/01 00:33:06;;;;;;;;;2.67;2.67;;;;;18.24;39.44;100779.06;5073390;28;45441;-62
2022/06/01 00:35:32;;;;;;;;;3.67;2.67;;;;;18.21;39.55;100774.78;5073043;28;46520;-62
2022/06/01 00:37:57;;;;;;;;;4.00;4.00;;;;;18.15;39.75;100761.03;5072846;28;45519;-63
2022/06/01 00:40:26;;;;;;;;;3.67;3.67;;;;;18.13;39.61;100768.25;5076751;28;45645;-62
2022/06/01 00:42:54;;;;;;;;;4.00;4.00;;;;;18.17;39.70;100778.59;5077006;28;45996;-63
2022/06/01 00:45:22;;;;;;;;;4.00;4.00;;;;;18.18;39.64;100768.81;5076667;28;46595;-63
2022/06/01 00:47:49;;;;;;;;;5.00;4.00;;;;;18.21;39.57;100772.13;5076324;28;45545;-62
2022/06/01 00:50:36;;;;;;;;;5.67;5.33;;;;;18.22;39.69;100765.84;5076842;28;45511;-63
2022/06/01 00:53:06;;;;;;;;;5.33;4.33;;;;;18.21;39.55;100772.13;5076727;27;45456;-63
2022/06/01 00:55:45;;;;;;;;;5.33;4.33;;;;;18.15;40.04;100761.03;5076809;28;45463;-62
2022/06/01 00:58:16;;;;;;;;;6.67;6.67;;;;;18.12;39.63;100762.06;5076567;28;45509;-61
2022/06/01 01:00:43;;;;;;;;;4.67;4.67;;;;;18.14;40.01;100769.97;5076667;28;46040;-63
2022/06/01 01:03:11;;;;;;;;;4.67;4.67;;;;;18.13;39.99;100782.41;5076545;28;45614;-62
2022/06/01 01:05:45;;;;;;;;;9.33;6.33;;;;;18.07;40.07;100774.81;5076331;28;45525;-63
2022/06/01 01:08:12;;;;;;;;;6.33;6.33;;;;;18.07;39.83;100777.47;5076487;27;45486;-62
2022/06/01 01:10:38;;;;;;;;;5.33;5.33;;;;;18.08;40.01;100777.41;5076484;28;45533;-62
2022/06/01 01:13:08;;;;;;;;;5.67;4.00;;;;;18.09;40.28;100778.25;5076482;28;45521;-61
2022/06/01 01:15:40;;;;;;;;;4.00;4.00;;;;;18.08;40.08;100772.06;5076340;27;45526;-62
2022/06/01 01:18:10;;;;;;;;;3.33;3.33;;;;;18.07;40.46;100766.84;5076334;27;45404;-62
2022/06/01 01:21:08;;;;;;;;;5.00;4.00;;;;;18.09;40.22;100767.59;5076339;28;45573;-61
2022/06/01 01:23:49;;;;;;;;;5.33;4.67;;;;;18.10;40.44;100769.28;5075527;28;45452;-64
2022/06/01 01:26:15;;;;;;;;;3.33;3.33;;;;;18.08;40.34;100769.41;5074630;28;46026;-64
2022/06/01 01:28:41;;;;;;;;;3.33;3.33;;;;;18.05;40.41;100761.63;5075874;28;45506;-62
2022/06/01 01:31:16;;;;;;;;;3.67;2.67;;;;;18.01;40.14;100760.09;5076269;28;45447;-63
2022/06/01 01:33:43;;;;;;;;;3.33;3.33;;;;;18.00;39.78;100758.41;5076250;27;45600;-62
2022/06/01 01:36:11;;;;;;;;;3.67;2.67;;;;;18.04;40.23;100767.03;5075768;28;46328;-63
2022/06/01 01:38:40;;;;;;;;;2.67;2.67;;;;;18.01;40.53;100770.75;5076032;28;45977;-62
2022/06/01 01:41:25;;;;;;;;;2.67;2.67;;;;;18.03;40.32;100770.66;5076068;28;45581;-63
2022/06/01 01:44:04;;;;;;;;;4.00;2.67;;;;;18.01;40.20;100759.25;5075896;28;45482;-62
2022/06/01 01:46:30;;;;;;;;;4.67;4.33;;;;;18.02;40.35;100775.09;5075774;28;45454;-64
2022/06/01 01:48:55;;;;;;;;;3.67;3.67;;;;;17.98;40.58;100770.09;5075788;28;45474;-62
2022/06/01 01:51:23;;;;;;;;;3.00;3.00;;;;;17.97;40.50;100771.03;5074931;28;45493;-63
2022/06/01 01:53:50;;;;;;;;;3.33;3.33;;;;;17.97;40.43;100765.72;5076000;28;45569;-62
2022/06/01 01:56:41;;;;;;;;;4.67;4.67;;;;;17.94;40.33;100763.25;5075224;27;46056;-63
2022/06/01 01:59:15;;;;;;;;;4.00;3.00;;;;;17.97;40.55;100763.03;5075924;28;45470;-62
2022/06/01 02:01:55;;;;;;;;;3.00;3.00;;;;;17.93;40.61;100756.22;5076016;28;45460;-63
2022/06/01 02:07:29;;;;;;;;;3.67;3.67;;;;;17.92;40.58;100751.84;5075605;28;45427;-62
2022/06/01 02:12:43;;;;;;;;;4.67;3.00;;;;;17.87;40.78;100744.16;5075461;28;45475;-63
2022/06/01 02:15:16;;;;;;;;;1.67;1.67;;;;;17.86;40.65;100735.31;5075501;28;45615;-62
2022/06/01 02:17:50;;;;;;;;;3.00;3.00;;;;;17.86;40.55;100742.44;5075420;28;46139;-62
2022/06/01 02:20:35;;;;;;;;;3.00;2.00;;;;;17.85;40.61;100741.59;5075214;28;45426;-63
2022/06/01 02:23:01;;;;;;;;;2.33;2.33;;;;;17.81;40.56;100734.78;5075296;28;45541;-63
2022/06/01 02:25:29;;;;;;;;;3.33;3.33;;;;;17.83;40.74;100738.16;5075504;28;45416;-63
2022/06/01 02:27:57;;;;;;;;;3.00;3.00;;;;;17.81;40.94;100739.22;5075088;27;45576;-63
2022/06/01 02:30:30;;;;;;;;;1.67;1.67;;;;;17.81;41.01;100741.88;5075172;28;45571;-63
2022/06/01 02:32:57;;;;;;;;;1.67;1.67;;;;;17.76;41.15;100733.28;5073838;28;45431;-63
2022/06/01 02:35:24;;;;;;;;;5.33;5.33;;;;;17.72;41.12;100732.66;5073928;28;45550;-63
2022/06/01 02:37:55;;;;;;;;;6.67;6.67;;;;;17.70;41.35;100739.00;5074495;27;46360;-61
2022/06/01 02:40:24;;;;;;;;;9.33;9.33;;;;;17.63;41.77;100727.91;5074740;28;45480;-62
2022/06/01 02:42:51;;;;;;;;;10.00;9.00;;;;;17.63;41.94;100734.09;5074863;28;45514;-63
2022/06/01 02:45:20;;;;;;;;;6.33;6.00;;;;;17.62;41.90;100726.19;5074930;28;45526;-63
2022/06/01 02:47:46;;;;;;;;;4.00;4.00;;;;;17.66;41.93;100733.88;5074407;28;46179;-62
2022/06/01 02:50:17;;;;;;;;;5.00;5.00;;;;;17.67;41.81;100740.06;5074811;28;45384;-63
2022/06/01 02:52:44;;;;;;;;;2.67;2.67;;;;;17.67;41.77;100732.06;5074840;28;45493;-63
2022/06/01 02:55:10;;;;;;;;;2.67;2.67;;;;;17.71;41.85;100736.28;5074790;28;45617;-62
2022/06/01 02:57:37;;;;;;;;;3.67;3.67;;;;;17.73;41.62;100730.81;5074518;28;45496;-62
2022/06/01 03:00:07;;;;;;;;;3.00;3.00;;;;;17.73;41.26;100726.38;5074840;28;45520;-62
2022/06/01 03:02:33;;;;;;;;;7.00;6.00;;;;;17.72;41.50;100722.00;5074508;28;45454;-63
2022/06/01 03:04:59;;;;;;;;;5.00;3.00;;;;;17.66;41.76;100714.41;5074656;28;45590;-63
2022/06/01 03:07:24;;;;;;;;;2.67;2.67;;;;;17.66;41.73;100723.25;5074413;28;46194;-63
2022/06/01 03:09:49;;;;;;;;;3.00;3.00;;;;;17.65;41.71;100724.22;5074837;28;45466;-63
2022/06/01 03:12:15;;;;;;;;;4.33;3.00;;;;;17.65;42.04;100728.66;5074421;28;45423;-63
2022/06/01 03:14:40;;;;;;;;;3.67;3.67;;;;;17.63;41.71;100722.59;5074784;28;45779;-63
2022/06/01 03:17:07;;;;;;;;;4.67;3.67;;;;;17.67;41.55;100732.06;5074394;28;45460;-62
2022/06/01 03:19:32;;;;;;;;;5.33;4.33;;;;;17.64;42.14;100734.94;5074379;28;45498;-63
2022/06/01 03:21:58;;;;;;;;;3.00;3.00;;;;;17.62;42.19;100739.47;5074255;28;45537;-62
2022/06/01 03:24:23;;;;;;;;;4.33;3.67;;;;;17.57;42.72;100736.25;5074429;28;45526;-64
2022/06/01 03:26:49;;;;;;;;;4.33;4.00;;;;;17.55;42.49;100741.69;5074455;28;46363;-63
2022/06/01 03:29:14;;;;;;;;;4.00;4.00;;;;;17.53;43.17;100740.91;5074211;28;45501;-62
2022/06/01 03:31:40;;;;;;;;;3.67;3.67;;;;;17.46;42.55;100739.59;5074259;28;45491;-63
2022/06/01 03:34:06;;;;;;;;;6.00;4.67;;;;;17.42;42.96;100741.59;5074098;28;45431;-63
2022/06/01 03:36:31;;;;;;;;;3.67;3.67;;;;;17.39;43.57;100751.56;5073924;28;45467;-63
2022/06/01 03:38:57;;;;;;;;;5.00;5.00;;;;;17.32;43.04;100742.25;5073997;28;45465;-63
2022/06/01 03:41:27;;;;;;;;;4.00;3.67;;;;;17.28;43.27;100751.38;5074148;28;45671;-62
2022/06/01 03:46:36;;;;;;;;;5.67;4.67;;;;;17.25;43.46;100749.75;5073622;28;45737;-62
2022/06/01 03:49:02;;;;;;;;;4.33;4.00;;;;;17.23;43.44;100756.97;5074004;28;45494;-62
2022/06/01 03:51:27;;;;;;;;;6.00;5.00;;;;;17.21;43.32;100758.84;5072513;28;45396;-63
2022/06/01 03:53:53;;;;;;;;;4.33;4.33;;;;;17.13;43.66;100755.78;5073769;28;45418;-61
2022/06/01 03:56:22;;;;;;;;;5.00;5.00;;;;;17.12;43.53;100762.06;5073811;28;45501;-62
2022/06/01 03:58:49;;;;;;;;;4.00;4.00;;;;;17.12;43.78;100764.72;5073779;28;45505;-62
2022/06/01 04:01:15;;;;;;;;;4.67;4.67;;;;;17.09;44.05;100765.75;5073719;28;45542;-62
2022/06/01 04:03:41;;;;;;;;;4.00;4.00;;;;;17.05;44.14;100766.88;5073778;28;46232;-62
2022/06/01 04:06:06;;;;;;;;;5.00;4.67;;;;;16.97;44.25;100769.13;5073626;28;45968;-63
2022/06/01 04:08:31;;;;;;;;;3.00;3.00;;;;;16.95;43.92;100768.38;5073611;28;45422;-63
2022/06/01 04:10:57;;;;;;;;;5.67;5.00;;;;;16.93;44.56;100764.97;5073593;28;45963;-63
2022/06/01 04:13:25;;;;;;;;;5.00;4.67;;;;;16.86;44.57;100767.13;5074192;27;45455;-63
2022/06/01 04:15:50;;;;;;;;;5.00;4.33;;;;;16.85;45.08;100759.25;5077100;28;45523;-62
2022/06/01 04:18:16;;;;;;;;;5.00;5.00;;;;;16.89;44.96;100768.75;5077033;28;45453;-62
2022/06/01 04:20:41;;;;;;;;;6.00;6.00;;;;;16.83;45.13;100767.31;5077182;28;45450;-62
2022/06/01 04:23:07;;;;;;;;;2.00;2.00;;;;;16.87;44.30;100771.50;5077129;28;45466;-62
2022/06/01 04:25:32;;;;;;;;;4.67;4.67;;;;;16.85;45.29;100773.38;5076812;28;45504;-62
2022/06/01 04:27:58;;;;;;;;;4.33;4.33;;;;;16.91;44.55;100775.69;5076938;28;45541;-62
2022/06/01 04:30:24;;;;;;;;;6.00;6.00;;;;;16.84;45.05;100778.78;5076962;28;45563;-62
2022/06/01 04:32:51;;;;;;;;;6.33;5.33;;;;;16.80;45.05;100786.09;5076913;28;45489;-62
2022/06/01 04:35:18;;;;;;;;;6.67;5.33;;;;;16.78;44.54;100780.00;5076685;28;45386;-62
2022/06/01 04:37:44;;;;;;;;;4.00;4.00;;;;;16.83;44.78;100785.06;5076738;28;45495;-62
2022/06/01 04:40:11;;;;;;;;;4.67;4.67;;;;;16.85;44.77;100799.94;5076887;28;45462;-62
2022/06/01 04:42:39;;;;;;;;;4.33;4.33;;;;;16.87;45.01;100792.75;5076790;28;45556;-62
2022/06/01 04:45:05;;;;;;;;;5.00;5.00;;;;;16.80;44.81;100787.88;5076720;28;46473;-64
2022/06/01 04:47:31;;;;;;;;;4.00;4.00;;;;;16.85;45.34;100789.31;5076012;28;45438;-63
2022/06/01 04:49:57;;;;;;;;;4.00;4.00;;;;;16.84;44.96;100798.22;5076825;28;45983;-63
2022/06/01 04:52:22;;;;;;;;;6.00;6.00;;;;;16.85;45.38;100794.63;5076675;28;45505;-64
2022/06/01 04:54:48;;;;;;;;;7.67;7.67;;;;;16.83;45.18;100798.31;5076543;28;45493;-62
2022/06/01 04:57:13;;;;;;;;;5.00;5.00;;;;;16.84;44.69;100803.53;5076668;28;45464;-63
2022/06/01 04:59:38;;;;;;;;;5.67;5.67;;;;;16.86;45.29;100806.13;5076776;28;45614;-63
2022/06/01 05:02:05;;;;;;;;;6.00;6.00;;;;;16.85;44.63;100810.59;5076489;28;45514;-63
2022/06/01 05:04:30;;;;;;;;;6.33;6.33;;;;;16.90;44.51;100818.25;5076112;28;45561;-62
2022/06/01 05:06:56;;;;;;;;;7.67;4.33;;;;;16.92;44.89;100811.91;5076217;28;45487;-61
2022/06/01 05:09:22;;;;;;;;;5.67;5.67;;;;;16.90;44.62;100815.59;5076256;28;45530;-62
2022/06/01 05:11:47;;;;;;;;;6.33;6.33;;;;;16.87;44.73;100821.09;5076294;28;45607;-62
2022/06/01 05:14:12;;;;;;;;;10.00;7.33;;;;;16.88;44.92;100822.84;5076064;28;46361;-63
2022/06/01 05:16:38;;;;;;;;;11.00;9.67;;;;;16.91;45.38;100820.84;5076292;28;45422;-62
2022/06/01 05:19:03;;;;;;;;;6.33;6.33;;;;;16.89;44.88;100821.88;5076110;28;45496;-63
2022/06/01 05:21:29;;;;;;;;;6.00;6.00;;;;;16.88;44.94;100810.41;5091855;27;45522;-63
2022/06/01 05:23:54;;;;;;;;;8.33;8.33;;;;;16.91;44.85;100814.69;5075866;28;46533;-63
2022/06/01 05:26:20;;;;;;;;;7.00;7.00;;;;;16.95;45.67;100817.06;5074796;28;45478;-64
2022/06/01 05:28:45;;;;;;;;;7.67;7.67;;;;;16.99;45.01;100818.59;5075916;28;45430;-64
2022/06/01 05:31:12;;;;;;;;;7.00;7.00;;;;;16.89;44.91;100812.09;5075837;28;45474;-63
2022/06/01 05:33:40;;;;;;;;;6.67;6.67;;;;;16.77;45.27;100815.47;5075595;28;46555;-63
2022/06/01 05:36:05;;;;;;;;;5.33;5.33;;;;;16.83;45.49;100814.28;5075664;28;45519;-63
2022/06/01 05:38:31;;;;;;;;;6.67;6.67;;;;;16.90;44.70;100808.50;5075618;28;45478;-63
2022/06/01 05:40:56;;;;;;;;;6.00;6.00;;;;;16.97;44.96;100820.47;5075926;28;45682;-62
2022/06/01 05:43:22;;;;;;;;;5.67;5.67;;;;;16.95;45.12;100810.88;5075405;28;45465;-62
2022/06/01 05:45:48;;;;;;;;;5.00;5.00;;;;;16.99;45.08;100813.28;5075425;28;45472;-63
2022/06/01 05:48:15;;;;;;;;;6.00;5.00;;;;;16.96;44.79;100804.63;5075487;28;45481;-63
2022/06/01 05:50:42;;;;;;;;;5.33;5.33;;;;;16.96;44.43;100802.84;5074073;28;45478;-63
2022/06/01 05:53:07;;;;;;;;;5.67;5.67;;;;;16.99;44.43;100802.66;5075335;28;46351;-63
2022/06/01 05:55:35;;;;;;;;;6.00;6.00;;;;;16.99;45.23;100800.00;5075322;28;45508;-63
2022/06/01 05:58:00;;;;;;;;;6.33;6.33;;;;;17.02;45.40;100806.06;5075423;28;45455;-63
2022/06/01 06:00:26;;;;;;;;;6.33;6.33;;;;;17.07;44.85;100806.66;5075368;28;45640;-63
2022/06/01 06:02:51;;;;;;;;;6.67;5.67;;;;;17.05;45.07;100805.88;5075253;28;46579;-63
2022/06/01 06:08:00;;;;;;;;;4.67;4.67;;;;;17.15;44.61;100813.22;5075233;28;45447;-63
2022/06/01 06:10:28;;;;;;;;;5.67;5.67;;;;;17.17;44.85;100815.81;5075297;28;45438;-64
2022/06/01 06:12:53;;;;;;;;;4.33;4.33;;;;;17.17;43.93;100821.13;5075116;27;45392;-64
2022/06/01 06:15:19;;;;;;;;;6.00;5.67;;;;;17.16;44.43;100814.94;5073880;28;45440;-63
2022/06/01 06:17:44;;;;;;;;;5.00;3.33;;;;;17.21;44.05;100812.00;5075124;28;45549;-62
2022/06/01 06:20:10;;;;;;;;;3.00;3.00;;;;;17.21;43.85;100801.38;5075188;28;45491;-63
2022/06/01 06:22:36;;;;;;;;;5.67;4.33;;;;;17.28;43.73;100808.03;5075010;28;46280;-62
2022/06/01 06:25:01;;;;;;;;;3.00;3.00;;;;;17.31;42.96;100807.84;5074997;28;45486;-63
2022/06/01 06:27:27;;;;;;;;;3.33;3.33;;;;;17.29;42.86;100816.88;5074939;28;45559;-62
2022/06/01 06:29:55;;;;;;;;;4.00;4.00;;;;;17.30;42.86;100805.28;5074792;28;45587;-63
2022/06/01 06:32:22;;;;;;;;;3.67;3.67;;;;;17.30;43.48;100808.81;5074463;28;46764;-63
2022/06/01 06:34:47;;;;;;;;;3.67;3.67;;;;;17.29;42.78;100806.22;5074423;28;45526;-62
2022/06/01 06:37:13;;;;;;;;;2.33;2.33;;;;;17.35;42.96;100813.84;5074156;28;45643;-62
2022/06/01 06:39:38;;;;;;;;;4.33;3.67;;;;;17.41;42.80;100816.16;5074573;28;46870;-62
2022/06/01 06:42:04;;;;;;;;;2.00;2.00;;;;;17.37;43.02;100809.28;5074659;28;46523;-62
2022/06/01 06:44:29;;;;;;;;;3.00;2.00;;;;;17.41;42.99;100824.97;5090251;27;45527;-63
2022/06/01 06:46:55;;;;;;;;;3.00;3.00;;;;;17.47;43.07;100825.56;5074221;28;45458;-63
2022/06/01 06:49:20;;;;;;;;;6.00;6.00;;;;;17.51;42.58;100821.75;5074501;28;45561;-62
2022/06/01 06:51:46;;;;;;;;;6.00;3.67;;;;;17.56;42.36;100824.97;5074300;28;46672;-62
2022/06/01 06:54:11;;;;;;;;;3.33;3.33;;;;;17.55;42.57;100820.63;5074148;28;47578;-62
2022/06/01 06:56:36;;;;;;;;;4.00;3.00;;;;;17.64;42.17;100820.03;5074602;28;45933;-62
2022/06/01 06:59:04;;;;;;;;;6.00;4.67;;;;;17.67;42.31;100827.84;5074443;28;45516;-63
2022/06/01 07:01:29;;;;;;;;;4.00;4.00;;;;;17.72;41.99;100830.22;5074221;28;46617;-62
2022/06/01 07:03:54;;;;;;;;;3.67;3.00;;;;;17.71;41.98;100820.53;5073874;28;45503;-63
2022/06/01 07:06:20;;;;;;;;;3.00;3.00;;;;;17.72;41.59;100832.88;5074226;28;45467;-64
2022/06/01 07:08:49;;;;;;;;;2.67;2.67;;;;;17.75;41.89;100832.69;5074129;28;45499;-63
2022/06/01 07:11:16;;;;;;;;;5.67;4.67;;;;;17.74;42.07;100828.31;5073884;28;46333;-63
2022/06/01 07:13:43;;;;;;;;;5.33;3.33;;;;;17.72;41.78;100836.38;5074358;28;45491;-63
2022/06/01 07:16:14;;;;;;;;;3.67;3.67;;;;;17.73;41.61;100834.56;5074066;28;45510;-63
2022/06/01 07:18:42;;;;;;;;;4.67;4.67;;;;;17.80;41.80;100843.94;5074037;27;45606;-63
2022/06/01 07:21:07;;;;;;;;;2.67;2.67;;;;;17.86;41.17;100840.88;5073584;28;45502;-62
2022/06/01 07:23:35;;;;;;;;;3.67;3.67;;;;;17.93;41.67;100842.22;5073730;28;45490;-63
2022/06/01 07:26:00;;;;;;;;;4.50;4.50;;;;;17.96;41.71;100838.53;5073875;28;45546;-62
2022/06/01 07:28:26;;;;;;;;;3.33;2.33;;;;;18.02;41.33;100838.97;5073558;28;45541;-62
2022/06/01 07:30:58;;;;;;;;;3.00;2.67;;;;;18.05;41.28;100833.50;5073916;28;45554;-62
2022/06/01 07:33:26;;;;;;;;;3.00;1.33;;;;;18.06;41.02;100837.84;5073877;28;45597;-63
2022/06/01 07:35:52;;;;;;;;;2.00;2.00;;;;;18.10;41.11;100841.16;5073935;28;45444;-64
2022/06/01 07:43:47;;;;;;;;;3.67;3.67;;;;;18.17;41.16;100846.97;5073978;28;45480;-63
2022/06/01 07:46:12;;;;;;;;;2.67;2.33;;;;;18.20;40.71;100842.31;5073449;28;45516;-63
2022/06/01 07:48:38;;;;;;;;;4.00;4.00;;;;;18.17;40.89;100844.31;5072749;28;45454;-63
2022/06/01 07:51:04;;;;;;;;;1.33;1.33;;;;;18.20;40.63;100844.09;5073754;28;46234;-62
2022/06/01 07:53:30;;;;;;;;;4.00;4.00;;;;;18.21;41.01;100851.97;5073706;28;45645;-62
2022/06/01 07:55:55;;;;;;;;;6.67;3.67;;;;;18.22;40.86;100842.22;5073713;28;45415;-63
2022/06/01 07:58:20;;;;;;;;;5.00;4.00;;;;;18.26;40.69;100844.56;5073528;28;45392;-64
2022/06/01 08:00:46;;;;;;;;;3.67;3.00;;;;;18.28;40.83;100847.16;5072914;28;48917;-63
2022/06/01 08:03:14;;;;;;;;;4.67;4.67;;;;;18.27;40.85;100853.44;5073439;28;45500;-62
2022/06/01 08:05:39;;;;;;;;;5.00;5.00;;;;;18.22;41.00;100855.53;5088473;27;45465;-64
2022/06/01 08:08:06;;;;;;;;;4.00;4.00;;;;;18.16;41.30;100847.91;5073293;28;45664;-62
2022/06/01 08:10:31;;;;;;;;;3.33;3.33;;;;;18.16;41.20;100848.78;5071688;28;45534;-64
2022/06/01 08:13:06;;;;;;;;;5.67;5.33;;;;;18.13;41.11;100848.09;5073269;28;45500;-63
2022/06/01 08:15:33;;;;;;;;;3.00;3.00;;;;;18.16;41.46;100842.56;5073632;28;45578;-63
2022/06/01 08:17:58;;;;;;;;;2.67;2.67;;;;;18.23;41.12;100838.59;5073602;28;45492;-64
2022/06/01 08:20:26;;;;;;;;;4.67;3.67;;;;;18.26;40.96;100841.91;5071557;28;46530;-63
2022/06/01 08:22:52;;;;;;;;;3.33;3.33;;;;;18.23;41.33;100834.13;5073116;28;45624;-63
2022/06/01 08:25:19;;;;;;;;;2.67;2.67;;;;;18.29;41.62;100840.84;5073059;28;45502;-62
2022/06/01 08:27:46;;;;;;;;;4.00;4.00;;;;;18.31;41.31;100837.13;5073129;28;45613;-62
2022/06/01 08:30:13;;;;;;;;;5.00;3.33;;;;;18.27;40.97;100825.00;5073065;28;46506;-63
2022/06/01 08:32:39;;;;;;;;;3.33;3.33;;;;;18.39;40.99;100841.13;5073149;28;45555;-63
2022/06/01 08:35:07;;;;;;;;;5.00;4.00;;;;;18.39;41.24;100849.97;5073295;28;45569;-63
2022/06/01 08:37:32;;;;;;;;;3.00;3.00;;;;;18.35;41.12;100840.47;5073336;28;45450;-62
2022/06/01 08:39:58;;;;;;;;;2.67;2.67;;;;;18.36;40.79;100839.53;5073015;28;46273;-63
2022/06/01 08:42:24;;;;;;;;;2.00;2.00;;;;;18.38;40.83;100834.97;5072405;28;45557;-62
2022/06/01 08:44:51;;;;;;;;;6.67;5.67;;;;;18.37;41.13;100837.69;5073296;28;45530;-62
2022/06/01 08:47:27;;;;;;;;;0.00;0.00;;;;;18.32;41.37;100838.00;5072716;28;45536;-62
2022/06/01 08:49:58;;;;;;;;;3.67;3.67;;;;;18.34;41.53;100844.06;5088582;27;47434;-63
2022/06/01 08:52:25;;;;;;;;;3.33;3.33;;;;;18.38;41.58;100840.28;5072876;28;45380;-63
2022/06/01 08:54:50;;;;;;;;;5.33;5.00;;;;;18.41;40.94;100839.22;5073077;28;45474;-63
2022/06/01 08:57:28;;;;;;;;;3.67;3.67;;;;;18.46;41.21;100845.13;5072857;28;45632;-62
2022/06/01 09:00:15;;;;;;;;;2.67;2.67;;;;;18.52;41.42;100845.56;5073903;27;45531;-62
2022/06/01 09:02:58;;;;;;;;;4.00;4.00;;;;;18.58;40.83;100838.13;5076316;28;45486;-62
2022/06/01 09:05:34;;;;;;;;;4.67;3.67;;;;;18.61;40.77;100841.44;5076529;28;45546;-63
2022/06/01 09:08:17;;;;;;;;;3.00;3.00;;;;;18.64;40.96;100843.91;5076433;28;45478;-62
2022/06/01 09:10:58;;;;;;;;;2.67;2.67;;;;;18.63;40.38;100844.88;5075917;28;45489;-62
2022/06/01 09:31:48;;;;;;;;;3.67;2.00;;;;;18.75;38.57;100854.78;5172285;27;45428;-62
2022/06/01 09:34:23;;;;;;;;;6.00;6.00;;;;;18.90;38.93;100846.72;5153900;27;45484;-62
2022/06/01 09:37:01;;;;;;;;;1.67;1.67;;;;;18.96;38.46;100848.97;5154501;27;45398;-63
2022/06/01 09:39:26;;;;;;;;;2.00;2.00;;;;;19.02;38.54;100848.56;5154164;27;45476;-62
2022/06/01 09:41:52;;;;;;;;;3.33;2.00;;;;;19.01;38.48;100846.84;5153297;27;54387;-62
2022/06/01 09:44:31;;;;;;;;;5.00;3.00;;;;;19.02;38.60;100855.69;5154127;27;45502;-63
2022/06/01 09:47:00;;;;;;;;;4.00;4.00;;;;;19.01;38.73;100854.00;5154244;27;45372;-63
2022/06/01 09:49:27;;;;;;;;;3.33;3.33;;;;;19.03;38.74;100854.75;5154178;27;45396;-63
2022/06/01 09:52:21;;;;;;;;;2.00;2.00;;;;;19.03;38.81;100844.94;5154095;27;46220;-62
2022/06/01 09:54:52;;;;;;;;;3.67;3.00;;;;;19.05;39.07;100848.38;5153915;27;45380;-63
2022/06/01 09:57:19;;;;;;;;;3.33;3.33;;;;;19.12;38.93;100849.63;5154263;27;45405;-62
2022/06/01 10:08:18;;;;;;;;;4.67;4.67;;;;;19.35;38.59;100836.59;5153880;27;45447;-63
2022/06/01 10:10:58;;;;;;;;;3.00;3.00;;;;;19.38;38.36;100844.38;5153696;27;45421;-63
2022/06/01 10:13:31;;;;;;;;;4.00;4.00;;;;;19.44;38.47;100838.59;5152471;27;45520;-64
2022/06/01 10:16:02;;;;;;;;;3.67;3.67;;;;;19.52;38.75;100848.75;5153401;27;45318;-63
2022/06/01 10:18:31;;;;;;;;;4.67;4.67;;;;;19.51;38.81;100839.06;5153571;27;45385;-63
2022/06/01 10:21:08;;;;;;;;;1.67;1.67;;;;;19.46;38.12;100834.03;5153333;27;45580;-62
2022/06/01 10:23:47;;;;;;;;;3.00;3.00;;;;;19.49;38.07;100836.47;5153233;27;46094;-63
2022/06/01 10:26:36;;;;;;;;;2.33;2.33;;;;;19.51;37.87;100834.56;5153326;27;45383;-63
2022/06/01 10:29:15;;;;;;;;;1.67;1.67;;;;;19.53;37.73;100830.00;5153438;27;45439;-64
2022/06/01 10:31:46;;;;;;;;;1.67;1.67;;;;;19.55;37.14;100833.38;5145100;27;45324;-63
2022/06/01 10:34:31;;;;;;;;;2.33;2.33;;;;;19.54;37.51;100838.84;5138628;27;47022;-62
2022/06/01 10:37:10;;;;;;;;;2.33;2.33;;;;;19.54;37.88;100833.50;5138767;27;45498;-62
2022/06/01 10:39:42;;;;;;;;;3.33;1.67;;;;;19.55;37.16;100833.38;5138966;27;45417;-62
2022/06/01 10:42:19;;;;;;;;;2.00;2.00;;;;;19.57;37.14;100836.81;5138465;27;45467;-62
2022/06/01 10:44:59;;;;;;;;;3.33;3.33;;;;;19.55;37.15;100829.88;5138777;27;45990;-62
2022/06/01 10:47:54;;;;;;;;;3.67;2.67;;;;;19.57;36.31;100834.13;5138502;27;45601;-63
2022/06/01 10:50:24;;;;;;;;;3.33;2.33;;;;;19.58;36.91;100829.66;5138823;27;45462;-63
2022/06/01 10:53:19;;;;;;;;;3.67;2.67;;;;;19.59;36.98;100823.38;5138730;27;45352;-63
2022/06/01 10:55:45;;;;;;;;;3.00;1.67;;;;;19.58;36.98;100830.50;5133928;27;46159;-63
2022/06/01 10:58:21;;;;;;;;;2.00;2.00;;;;;19.64;36.49;100813.22;5138582;27;45400;-62
2022/06/01 11:01:05;;;;;;;;;2.67;2.33;;;;;19.71;36.73;100819.00;5138516;27;45463;-61
2022/06/01 11:03:48;;;;;;;;;2.67;2.67;;;;;19.77;36.43;100824.78;5138894;27;45430;-62
2022/06/01 11:06:29;;;;;;;;;3.33;3.33;;;;;19.80;37.05;100815.69;5138337;27;45954;-64
2022/06/01 11:09:10;;;;;;;;;3.33;3.33;;;;;19.82;36.45;100811.09;5138498;27;45507;-62
2022/06/01 11:11:50;;;;;;;;;3.33;3.33;;;;;19.84;36.79;100810.03;5138482;27;45415;-62
2022/06/01 11:14:30;;;;;;;;;2.67;2.67;;;;;19.84;37.33;100809.19;5136698;27;45485;-62
2022/06/01 11:17:00;;;;;;;;;2.33;2.00;;;;;19.84;36.95;100803.84;5138092;27;45384;-63
2022/06/01 11:19:41;;;;;;;;;3.00;3.00;;;;;19.87;36.12;100811.63;5138054;27;45531;-61
2022/06/01 11:22:12;;;;;;;;;12.33;11.33;;;;;19.90;35.38;100799.88;5138057;27;45384;-63
2022/06/01 11:25:04;;;;;;;;;2.00;2.00;;;;;19.96;35.87;100807.44;5138226;27;45737;-60
2022/06/01 11:27:44;;;;;;;;;6.33;3.67;;;;;19.98;35.92;100798.38;5137780;27;45582;-62
2022/06/01 11:30:24;;;;;;;;;3.00;3.00;;;;;20.03;36.72;100798.88;5137666;27;45553;-62
2022/06/01 11:33:10;;;;;;;;;4.00;4.00;;;;;20.10;36.46;100795.81;5138084;27;45448;-62
2022/06/01 11:35:50;;;;;;;;;5.00;5.00;;;;;20.15;36.89;100796.28;5137061;27;45449;-61
2022/06/01 11:38:32;;;;;;;;;3.00;3.00;;;;;20.14;36.33;100799.94;5138127;27;45405;-63
2022/06/01 11:41:01;;;;;;;;;5.00;3.00;;;;;20.11;36.07;100790.34;5137963;27;45436;-63
2022/06/01 11:43:41;;;;;;;;;2.67;2.67;;;;;20.10;35.86;100788.63;5135508;27;45504;-63
2022/06/01 11:46:20;;;;;;;;;2.00;1.67;;;;;20.10;35.84;100807.31;5137444;27;45403;-63
2022/06/01 11:48:54;;;;;;;;;5.33;3.00;;;;;20.11;35.27;100779.66;5137489;27;45494;-61
2022/06/01 11:51:43;;;;;;;;;2.33;1.67;;;;;20.16;35.86;100792.69;5137123;27;45404;-61
2022/06/01 11:54:14;;;;;;;;;3.67;3.67;;;;;20.20;35.30;100786.13;5137557;27;45435;-65
2022/06/01 11:56:51;;;;;;;;;2.00;2.00;;;;;20.20;35.51;100779.00;5138218;27;45407;-65
2022/06/01 11:59:27;;;;;;;;;5.33;5.00;;;;;20.21;35.29;100786.03;5136241;27;47820;-62
2022/06/01 12:02:14;;;;;;;;;4.00;3.00;;;;;20.23;35.14;100783.22;5136325;27;45545;-62
2022/06/01 12:04:39;;;;;;;;;2.00;2.00;;;;;20.26;35.08;100786.56;5136474;27;45352;-61
2022/06/01 12:07:19;;;;;;;;;2.67;2.00;;;;;20.30;35.18;100780.00;5137717;27;45718;-61
2022/06/01 12:09:50;;;;;;;;;1.67;1.67;;;;;20.39;34.94;100783.84;5136063;27;45443;-62
2022/06/01 12:12:43;;;;;;;;;4.00;3.67;;;;;20.44;33.84;100784.34;5137593;27;45546;-62
2022/06/01 12:15:32;;;;;;;;;3.67;2.00;;;;;20.48;33.93;100782.31;5137683;27;45359;-62
2022/06/01 12:17:59;;;;;;;;;2.00;2.00;;;;;20.52;34.01;100778.44;5153759;27;45475;-62
2022/06/01 12:20:28;;;;;;;;;6.00;4.67;;;;;20.59;33.93;100778.88;5136882;27;45471;-62